Time;durP1;ratioP1;P1;durP2;ratioP2;P2;SDS_P1;SDS_P2;PMS_P1;PMS_P2;Temp;Humidity;BMP_temperature;BMP_pressure;BME280_temperature;BME280_humidity;BME280_pressure;Samples;Min_cycle;Max_cycle;Signal;HPM_P1;HPM_P2
2023/08/24 00:01:00;;;;;;;20.00;7.30;;;;;;;22.08;75.78;100480.65;667947;1265;139968;-80
2023/08/24 00:16:09;;;;;;;16.50;6.90;;;;;;;22.04;76.04;100464.71;668462;1260;141011;-80
2023/08/24 00:31:16;;;;;;;14.30;7.60;;;;;;;22.03;77.20;100464.42;668957;1260;140564;-79
2023/08/24 00:46:19;;;;;;;19.50;10.00;;;;;;;22.02;77.12;100461.61;668531;1264;140173;-79
2023/08/24 01:01:24;;;;;;;14.50;7.30;;;;;;;21.99;76.88;100478.38;667856;1265;140620;-79
2023/08/24 01:16:31;;;;;;;9.90;5.80;;;;;;;21.75;78.04;100502.95;668035;1263;139288;-79
2023/08/24 01:31:36;;;;;;;11.30;5.40;;;;;;;21.75;77.76;100502.09;668162;1264;140559;-79
2023/08/24 01:46:42;;;;;;;9.00;5.00;;;;;;;21.69;79.21;100492.34;668563;1276;138668;-80
2023/08/24 02:01:46;;;;;;;10.20;5.20;;;;;;;21.50;79.17;100481.83;669050;1267;139523;-79
2023/08/24 02:16:50;;;;;;;8.10;5.40;;;;;;;21.56;79.78;100475.84;668760;1261;139969;-79
2023/08/24 02:31:53;;;;;;;9.60;4.90;;;;;;;21.30;81.32;100482.19;667643;1265;139395;-79
2023/08/24 02:46:57;;;;;;;7.40;4.50;;;;;;;21.12;81.95;100485.66;667121;1263;138759;-79
2023/08/24 03:02:01;;;;;;;9.10;5.10;;;;;;;20.87;82.81;100484.69;667741;1264;140348;-80
2023/08/24 03:17:04;;;;;;;11.10;5.40;;;;;;;20.61;84.34;100486.55;668409;1264;139395;-79
2023/08/24 03:32:08;;;;;;;11.20;5.60;;;;;;;20.31;85.29;100488.93;669247;1268;140735;-79
2023/08/24 03:47:11;;;;;;;8.30;4.90;;;;;;;19.97;85.55;100486.71;668432;1264;140445;-80
2023/08/24 04:02:16;;;;;;;10.10;5.60;;;;;;;19.63;84.99;100488.06;669473;1265;139973;-79
2023/08/24 04:17:19;;;;;;;13.90;6.80;;;;;;;19.67;88.25;100502.64;668686;1266;139860;-79
2023/08/24 04:32:24;;;;;;;16.60;7.90;;;;;;;19.76;90.72;100500.44;668164;1263;139824;-79
2023/08/24 04:47:27;;;;;;;15.20;6.00;;;;;;;20.41;88.00;100504.53;668059;1264;139385;-80
2023/08/24 05:02:31;;;;;;;11.70;5.40;;;;;;;20.90;85.92;100512.35;668562;1263;140017;-78
2023/08/24 05:17:34;;;;;;;11.90;5.30;;;;;;;21.25;85.09;100513.15;668452;1261;139779;-78
2023/08/24 05:32:38;;;;;;;9.20;4.80;;;;;;;21.38;85.38;100528.58;668164;1264;140164;-78
2023/08/24 05:47:42;;;;;;;14.20;4.70;;;;;;;23.76;83.53;100542.35;669191;1264;165458;-79
2023/08/24 06:02:45;;;;;;;10.10;3.80;;;;;;;26.77;73.78;100545.55;669633;1262;139897;-77
2023/08/24 06:17:50;;;;;;;5.70;3.40;;;;;;;27.57;69.23;100551.68;670266;1275;138916;-78
2023/08/24 06:32:54;;;;;;;7.00;2.80;;;;;;;27.88;67.03;100554.99;669226;1259;138908;-79
2023/08/24 06:47:58;;;;;;;8.70;3.20;;;;;;;29.56;62.05;100553.17;669686;1262;139680;-79
2023/08/24 07:03:02;;;;;;;2.40;1.60;;;;;;;31.05;58.54;100550.55;669422;1264;138209;-79
2023/08/24 07:18:07;;;;;;;2.90;1.70;;;;;;;30.80;56.64;100562.11;668618;1264;138173;-78
2023/08/24 07:33:11;;;;;;;7.20;1.40;;;;;;;30.24;57.48;100563.34;669245;1269;138214;-78
2023/08/24 07:48:15;;;;;;;2.40;1.70;;;;;;;30.45;56.37;100568.17;674894;1261;138377;-78
2023/08/24 08:03:20;;;;;;;19.60;8.20;;;;;;;30.24;55.25;100579.92;669909;1267;138606;-78
2023/08/24 08:18:24;;;;;;;6.70;2.00;;;;;;;31.65;54.28;100587.20;668934;1264;139232;-78
2023/08/24 08:33:28;;;;;;;8.90;4.00;;;;;;;32.55;52.51;100589.73;668922;1261;138387;-78
2023/08/24 08:48:32;;;;;;;2.50;1.50;;;;;;;31.09;52.35;100591.06;668423;1259;138624;-77
2023/08/24 09:03:36;;;;;;;7.00;2.40;;;;;;;30.48;52.64;100580.30;668420;1264;139970;-77
2023/08/24 09:18:44;;;;;;;4.80;2.00;;;;;;;31.53;51.24;100575.29;668441;1266;140010;-79
2023/08/24 09:33:47;;;;;;;2.90;1.20;;;;;;;33.24;48.60;100570.02;668738;1264;138174;-78
2023/08/24 09:48:53;;;;;;;6.00;1.20;;;;;;;33.80;47.48;100563.23;668906;1262;138921;-76
2023/08/24 10:03:59;;;;;;;2.20;1.20;;;;;;;34.86;45.44;100551.52;668775;1264;140033;-76
2023/08/24 10:19:04;;;;;;;5.30;1.80;;;;;;;34.15;45.82;100546.19;668157;1264;139516;-74
2023/08/24 10:34:09;;;;;;;4.20;1.70;;;;;;;33.35;46.32;100545.52;669089;1262;138400;-75
2023/08/24 10:49:19;;;;;;;4.30;1.50;;;;;;;31.52;48.69;100539.61;669211;1265;138325;-76
2023/08/24 11:04:23;;;;;;;4.40;1.50;;;;;;;31.08;49.97;100530.73;668197;1264;138678;-76
2023/08/24 11:19:27;;;;;;;4.80;1.60;;;;;;;30.94;50.54;100518.48;668363;1275;139832;-77
2023/08/24 11:34:31;;;;;;;4.30;1.50;;;;;;;30.91;51.58;100509.93;668458;1274;138132;-76
2023/08/24 11:49:35;;;;;;;8.00;1.50;;;;;;;31.11;51.09;100501.21;667992;1259;139218;-75
2023/08/24 12:04:42;;;;;;;3.10;1.30;;;;;;;31.38;48.54;100498.84;667913;1262;139562;-75
2023/08/24 12:19:59;;;;;;;7.10;2.00;;;;;;;32.38;46.63;100490.48;667887;1262;138826;-76
2023/08/24 12:35:05;;;;;;;5.80;1.90;;;;;;;32.03;46.66;100482.40;668267;1267;138689;-76
2023/08/24 12:50:09;;;;;;;6.00;1.70;;;;;;;31.21;48.13;100470.59;668360;1265;139491;-76
2023/08/24 13:05:12;;;;;;;2.70;1.40;;;;;;;31.45;48.89;100454.48;670563;1260;138878;-76
2023/08/24 13:20:16;;;;;;;4.80;2.00;;;;;;;31.47;48.12;100439.95;672609;1273;138964;-76
2023/08/24 13:35:19;;;;;;;8.00;2.20;;;;;;;30.99;48.79;100428.80;669123;1262;139347;-75
2023/08/24 13:50:23;;;;;;;3.80;1.70;;;;;;;31.76;48.83;100425.56;669306;1262;139707;-75
2023/08/24 14:05:26;;;;;;;13.70;2.30;;;;;;;32.30;48.08;100408.55;669232;1262;138776;-75
2023/08/24 14:20:29;;;;;;;2.70;1.80;;;;;;;32.91;47.70;100401.51;669124;1263;138232;-75
2023/08/24 14:35:33;;;;;;;5.30;1.80;;;;;;;32.47;47.62;100397.12;670224;1260;139191;-75
2023/08/24 14:50:40;;;;;;;3.30;1.60;;;;;;;31.82;48.66;100396.33;669343;1263;138251;-76
2023/08/24 15:05:45;;;;;;;3.00;1.80;;;;;;;31.98;48.82;100382.50;670072;1264;139476;-76
2023/08/24 15:20:49;;;;;;;11.30;1.90;;;;;;;31.89;49.02;100361.81;668851;1275;139916;-74
2023/08/24 15:35:53;;;;;;;4.80;1.80;;;;;;;31.75;49.20;100355.48;669635;1263;138809;-78
2023/08/24 15:50:58;;;;;;;10.80;3.00;;;;;;;31.27;49.82;100359.69;670153;1262;138106;-76
2023/08/24 16:06:02;;;;;;;7.90;3.40;;;;;;;31.07;50.43;100338.96;670311;1262;139606;-76
2023/08/24 16:21:05;;;;;;;5.10;2.80;;;;;;;30.64;51.23;100306.08;669937;1264;138075;-77
2023/08/24 16:36:10;;;;;;;9.20;5.20;;;;;;;30.21;52.19;100314.08;668740;1273;138080;-77
2023/08/24 16:51:14;;;;;;;7.50;6.70;;;;;;;29.83;52.64;100319.26;668861;1258;138627;-75
2023/08/24 17:06:18;;;;;;;6.60;3.60;;;;;;;29.23;54.04;100313.52;668551;1273;139534;-75
2023/08/24 17:21:21;;;;;;;17.80;7.40;;;;;;;28.03;55.40;100295.68;670844;1264;139746;-76
2023/08/24 17:36:24;;;;;;;5.20;2.90;;;;;;;27.05;56.98;100310.81;669860;1263;138695;-77
2023/08/24 17:51:31;;;;;;;17.80;10.10;;;;;;;25.83;59.45;100309.23;668900;1257;138984;-76
2023/08/24 18:06:34;;;;;;;7.90;4.20;;;;;;;24.96;62.66;100320.72;669314;1263;139723;-75
2023/08/24 18:21:37;;;;;;;22.10;12.60;;;;;;;24.36;63.41;100324.08;668597;1264;137969;-75
2023/08/24 18:36:41;;;;;;;8.00;3.90;;;;;;;24.27;64.17;100323.81;673069;1263;138658;-77
2023/08/24 18:51:45;;;;;;;20.60;8.80;;;;;;;23.66;64.91;100330.52;675441;1258;140315;-76
2023/08/24 19:06:49;;;;;;;12.50;6.20;;;;;;;23.21;66.35;100349.67;669419;1265;139727;-76
2023/08/24 19:21:52;;;;;;;16.20;7.60;;;;;;;22.81;67.63;100348.92;670049;1260;140148;-76
2023/08/24 19:36:56;;;;;;;14.30;5.00;;;;;;;22.44;68.23;100341.98;669270;1261;139294;-76
2023/08/24 19:51:59;;;;;;;18.60;4.20;;;;;;;21.89;69.39;100316.90;669947;1260;139580;-78
2023/08/24 20:07:05;;;;;;;11.10;5.30;;;;;;;21.86;69.98;100308.01;669558;1260;140185;-79
2023/08/24 20:22:08;;;;;;;14.70;6.80;;;;;;;21.70;70.74;100296.08;669653;1258;139252;-77
2023/08/24 20:37:12;;;;;;;15.90;6.10;;;;;;;21.42;71.43;100281.64;675945;1264;139174;-79
2023/08/24 20:52:20;;;;;;;15.00;5.40;;;;;;;21.40;72.65;100283.78;680632;1265;140702;-78
2023/08/24 21:07:25;;;;;;;16.50;5.90;;;;;;;21.19;73.47;100277.23;679174;1262;140115;-78
2023/08/24 21:22:28;;;;;;;15.30;8.30;;;;;;;21.12;73.53;100264.48;674122;1262;141523;-78
2023/08/24 21:37:31;;;;;;;46.30;9.80;;;;;;;21.07;73.88;100266.89;677083;1259;140059;-78
2023/08/24 21:52:35;;;;;;;12.80;5.80;;;;;;;20.96;74.95;100261.63;670455;1262;139607;-79
2023/08/24 22:07:38;;;;;;;13.30;7.20;;;;;;;20.75;75.76;100257.09;670762;1260;139730;-79
2023/08/24 22:22:42;;;;;;;16.70;6.70;;;;;;;20.49;77.50;100257.17;669680;1263;139185;-78
2023/08/24 22:37:46;;;;;;;14.40;8.10;;;;;;;20.32;78.74;100256.42;669110;1257;139555;-78
2023/08/24 22:52:49;;;;;;;17.50;7.40;;;;;;;20.17;78.41;100235.58;669345;1263;140671;-76
2023/08/24 23:07:52;;;;;;;20.10;8.40;;;;;;;20.09;78.70;100215.98;668779;1260;139342;-79
2023/08/24 23:22:56;;;;;;;17.90;7.90;;;;;;;20.16;79.43;100199.92;669725;1260;140600;-76
2023/08/24 23:38:00;;;;;;;14.30;6.70;;;;;;;20.14;79.56;100174.56;668953;1260;140957;-76
2023/08/24 23:53:03;;;;;;;14.40;6.60;;;;;;;19.98;80.25;100158.73;669679;1259;140119;-77
